createdAt,value
2018-08-06T00:00:31.774Z,2.63
2018-08-06T00:02:59.539Z,2.52
2018-08-06T00:05:27.487Z,2.40
2018-08-06T00:07:55.079Z,2.30
2018-08-06T00:10:24.403Z,2.67
2018-08-06T00:12:52.040Z,2.25
2018-08-06T00:15:20.045Z,2.58
2018-08-06T00:17:47.712Z,2.02
2018-08-06T00:20:15.815Z,1.80
2018-08-06T00:22:43.946Z,2.30
2018-08-06T00:25:12.772Z,2.08
2018-08-06T00:27:41.352Z,2.00
2018-08-06T00:30:09.627Z,1.70
2018-08-06T00:32:37.735Z,2.27
2018-08-06T00:35:05.758Z,2.05
2018-08-06T00:37:33.418Z,2.02
2018-08-06T00:40:00.906Z,2.02
2018-08-06T00:42:28.547Z,2.20
2018-08-06T00:44:56.159Z,2.45
2018-08-06T00:47:24.175Z,2.40
2018-08-06T00:49:51.748Z,2.47
2018-08-06T00:52:19.412Z,2.10
2018-08-06T00:54:47.325Z,1.95
2018-08-06T00:57:14.871Z,2.00
2018-08-06T00:59:42.538Z,2.02
2018-08-06T01:02:10.183Z,2.08
2018-08-06T01:04:37.796Z,2.30
2018-08-06T01:07:05.598Z,1.87
2018-08-06T01:09:33.221Z,1.90
2018-08-06T01:12:00.786Z,1.90
2018-08-06T01:14:28.358Z,1.77
2018-08-06T01:16:56.021Z,1.87
2018-08-06T01:19:23.618Z,2.20
2018-08-06T01:21:51.379Z,2.90
2018-08-06T01:24:18.974Z,3.08
2018-08-06T01:26:46.656Z,3.00
2018-08-06T01:29:14.552Z,2.80
2018-08-06T01:31:42.104Z,2.72
2018-08-06T01:34:09.843Z,2.35
2018-08-06T01:36:37.400Z,2.60
2018-08-06T01:39:07.932Z,2.42
2018-08-06T01:41:36.533Z,2.45
2018-08-06T01:44:04.355Z,2.20
2018-08-06T01:46:32.077Z,2.60
2018-08-06T01:48:59.695Z,3.05
2018-08-06T01:51:27.489Z,2.72
2018-08-06T01:53:55.048Z,3.37
2018-08-06T01:56:22.688Z,2.50
2018-08-06T01:58:50.813Z,1.90
2018-08-06T02:01:18.420Z,2.30
2018-08-06T02:03:46.043Z,2.60
2018-08-06T02:06:13.815Z,2.50
2018-08-06T02:08:41.437Z,2.60
2018-08-06T02:11:09.103Z,2.40
2018-08-06T02:13:36.805Z,2.47
2018-08-06T02:16:04.429Z,2.62
2018-08-06T02:18:32.239Z,2.08
2018-08-06T02:20:59.872Z,2.47
2018-08-06T02:23:27.500Z,3.37
2018-08-06T02:25:55.159Z,3.00
2018-08-06T02:28:22.755Z,2.87
2018-08-06T02:30:50.690Z,2.83
2018-08-06T02:33:18.248Z,2.85
2018-08-06T02:35:45.828Z,2.70
2018-08-06T02:38:13.455Z,2.52
2018-08-06T02:40:41.070Z,2.58
2018-08-06T02:43:08.778Z,2.80
2018-08-06T02:45:36.453Z,2.67
2018-08-06T02:48:04.539Z,2.35
2018-08-06T02:50:32.179Z,2.72
2018-08-06T02:52:59.916Z,1.92
2018-08-06T02:55:27.567Z,2.27
2018-08-06T02:57:55.158Z,2.70
2018-08-06T03:00:22.816Z,2.67
2018-08-06T03:02:50.411Z,2.70
2018-08-06T03:05:18.975Z,2.42
2018-08-06T03:07:46.763Z,2.65
2018-08-06T03:10:14.444Z,2.62
2018-08-06T03:12:42.911Z,2.72
2018-08-06T03:15:11.251Z,2.77
2018-08-06T03:17:39.546Z,2.90
2018-08-06T03:20:08.235Z,2.72
2018-08-06T03:22:36.403Z,2.45
2018-08-06T03:25:05.364Z,2.30
2018-08-06T03:27:32.941Z,2.90
2018-08-06T03:30:00.543Z,2.80
2018-08-06T03:32:28.148Z,2.60
2018-08-06T03:34:56.105Z,2.50
2018-08-06T03:37:24.472Z,2.37
2018-08-06T03:39:52.610Z,2.58
2018-08-06T03:42:20.079Z,2.40
2018-08-06T03:44:47.988Z,3.62
2018-08-06T03:47:15.643Z,2.87
2018-08-06T03:49:43.209Z,3.20
2018-08-06T03:52:10.797Z,3.02
2018-08-06T03:54:38.383Z,3.08
2018-08-06T03:57:05.979Z,3.15
2018-08-06T03:59:33.564Z,3.40
2018-08-06T04:02:01.636Z,3.35
2018-08-06T04:04:29.239Z,3.30
2018-08-06T04:06:57.143Z,2.80
2018-08-06T04:09:24.796Z,4.15
2018-08-06T04:11:52.400Z,2.90
2018-08-06T04:14:19.959Z,2.47
2018-08-06T04:16:47.513Z,3.30
2018-08-06T04:19:15.208Z,3.20
2018-08-06T04:21:42.779Z,3.50
2018-08-06T04:26:29.768Z,2.90
2018-08-06T04:28:57.390Z,2.72
2018-08-06T04:31:25.016Z,2.95
2018-08-06T04:33:52.625Z,3.10
2018-08-06T04:36:20.167Z,3.20
2018-08-06T04:38:47.883Z,3.30
2018-08-06T04:41:15.483Z,3.58
2018-08-06T04:43:43.047Z,3.98
2018-08-06T04:46:10.697Z,3.37
2018-08-06T04:48:38.289Z,3.25
2018-08-06T04:51:06.072Z,3.37
2018-08-06T04:53:33.727Z,2.92
2018-08-06T04:56:01.317Z,3.00
2018-08-06T04:58:28.892Z,2.80
2018-08-06T05:00:56.566Z,3.05
2018-08-06T05:03:24.122Z,3.07
2018-08-06T05:05:51.776Z,2.72
2018-08-06T05:08:19.328Z,2.70
2018-08-06T05:10:46.964Z,3.08
2018-08-06T05:13:14.490Z,3.35
2018-08-06T05:15:42.091Z,2.98
2018-08-06T05:18:09.681Z,2.33
2018-08-06T05:20:37.366Z,2.20
2018-08-06T05:23:05.104Z,2.17
2018-08-06T05:25:33.009Z,2.17
2018-08-06T05:28:00.627Z,1.80
2018-08-06T05:30:28.453Z,2.43
2018-08-06T05:32:56.134Z,2.80
2018-08-06T05:35:23.707Z,2.35
2018-08-06T05:37:51.380Z,2.52
2018-08-06T05:40:18.978Z,3.50
2018-08-06T05:42:46.611Z,2.60
2018-08-06T05:45:14.256Z,2.77
2018-08-06T05:47:42.031Z,2.55
2018-08-06T05:50:11.756Z,2.50
2018-08-06T05:52:39.465Z,2.15
2018-08-06T05:55:08.174Z,2.77
2018-08-06T05:57:35.809Z,2.35
2018-08-06T06:00:05.575Z,2.55
2018-08-06T06:02:33.172Z,2.12
2018-08-06T06:05:00.743Z,1.60
2018-08-06T06:07:28.351Z,1.80
2018-08-06T06:09:56.079Z,1.82
2018-08-06T06:12:23.655Z,1.87
2018-08-06T06:14:51.306Z,2.17
2018-08-06T06:17:18.902Z,1.67
2018-08-06T06:19:46.580Z,2.00
2018-08-06T06:22:14.380Z,2.02
2018-08-06T06:24:41.999Z,1.80
2018-08-06T06:27:09.538Z,2.20
2018-08-06T06:29:37.124Z,2.00
2018-08-06T06:32:04.665Z,2.10
2018-08-06T06:34:32.703Z,1.70
2018-08-06T06:37:00.335Z,1.90
2018-08-06T06:39:27.976Z,1.62
2018-08-06T06:41:55.606Z,2.27
2018-08-06T06:44:23.287Z,4.70
2018-08-06T06:46:50.873Z,4.90
2018-08-06T06:49:18.534Z,5.62
2018-08-06T06:51:50.064Z,5.12
2018-08-06T06:54:17.805Z,6.42
2018-08-06T06:56:45.459Z,6.93
2018-08-06T06:59:13.189Z,6.08
2018-08-06T07:01:40.864Z,6.03
2018-08-06T07:04:08.532Z,5.72
2018-08-06T07:06:36.580Z,6.03
2018-08-06T07:09:07.488Z,6.50
2018-08-06T07:11:35.299Z,6.97
2018-08-06T07:14:03.179Z,5.97
2018-08-06T07:16:31.260Z,6.45
2018-08-06T07:21:33.427Z,5.17
2018-08-06T07:24:01.165Z,4.85
2018-08-06T07:26:28.953Z,5.33
2018-08-06T07:28:56.775Z,6.25
2018-08-06T07:31:24.376Z,7.15
2018-08-06T07:33:52.153Z,6.50
2018-08-06T07:36:19.924Z,5.20
2018-08-06T07:38:47.627Z,4.65
2018-08-06T07:41:15.592Z,4.92
2018-08-06T07:43:43.233Z,5.33
2018-08-06T07:46:11.591Z,6.47
2018-08-06T07:48:39.244Z,6.15
2018-08-06T07:51:06.839Z,6.97
2018-08-06T07:53:34.800Z,5.70
2018-08-06T07:56:03.008Z,5.97
2018-08-06T07:58:30.824Z,6.72
2018-08-06T08:00:58.546Z,6.55
2018-08-06T08:03:26.533Z,6.05
2018-08-06T08:05:54.261Z,6.03
2018-08-06T08:08:21.920Z,6.30
2018-08-06T08:10:50.043Z,6.30
2018-08-06T08:13:17.936Z,8.15
2018-08-06T08:15:45.899Z,6.08
2018-08-06T08:18:13.597Z,6.28
2018-08-06T08:20:41.245Z,6.83
2018-08-06T08:23:08.928Z,5.20
2018-08-06T08:25:36.820Z,5.37
2018-08-06T08:28:04.990Z,5.92
2018-08-06T08:30:32.660Z,5.83
2018-08-06T08:33:00.331Z,7.40
2018-08-06T08:35:32.284Z,6.97
2018-08-06T08:38:00.236Z,6.87
2018-08-06T08:40:28.220Z,7.72
2018-08-06T08:42:55.979Z,8.75
2018-08-06T08:45:23.723Z,7.53
2018-08-06T08:47:51.393Z,6.80
2018-08-06T08:50:19.889Z,6.40
2018-08-06T08:52:47.661Z,6.03
2018-08-06T08:55:16.572Z,6.03
2018-08-06T08:57:44.584Z,6.05
2018-08-06T09:00:14.608Z,7.65
2018-08-06T09:02:43.832Z,7.90
2018-08-06T09:05:11.589Z,6.55
2018-08-06T09:07:39.233Z,5.45
2018-08-06T09:10:09.049Z,6.08
2018-08-06T09:12:36.760Z,6.10
2018-08-06T09:15:09.804Z,5.62
2018-08-06T09:17:38.056Z,5.87
2018-08-06T09:20:05.691Z,5.20
2018-08-06T09:22:33.473Z,4.70
2018-08-06T09:25:01.360Z,4.90
2018-08-06T09:27:29.131Z,5.10
2018-08-06T09:29:57.044Z,4.53
2018-08-06T09:32:24.675Z,3.60
2018-08-06T09:34:52.341Z,4.80
2018-08-06T09:37:20.087Z,6.03
2018-08-06T09:39:47.757Z,5.00
2018-08-06T09:42:15.335Z,4.58
2018-08-06T09:44:42.960Z,5.40
2018-08-06T09:47:11.081Z,5.10
2018-08-06T09:49:38.756Z,6.58
2018-08-06T09:52:06.637Z,6.50
2018-08-06T09:54:34.282Z,6.90
2018-08-06T09:57:01.994Z,5.95
2018-08-06T09:59:29.594Z,5.08
2018-08-06T10:01:58.560Z,6.05
2018-08-06T10:04:26.992Z,5.30
2018-08-06T10:06:55.067Z,5.17
2018-08-06T10:09:22.689Z,6.65
2018-08-06T10:11:50.375Z,6.40
2018-08-06T10:14:18.637Z,6.30
2018-08-06T10:16:46.325Z,5.00
2018-08-06T10:19:14.312Z,5.67
2018-08-06T10:21:42.177Z,6.00
2018-08-06T10:24:09.857Z,6.62
2018-08-06T10:26:37.400Z,6.83
2018-08-06T10:29:07.228Z,6.85
2018-08-06T10:31:34.970Z,6.45
2018-08-06T10:34:02.984Z,7.08
2018-08-06T10:36:30.885Z,6.53
2018-08-06T10:38:58.642Z,7.00
2018-08-06T10:41:26.279Z,6.62
2018-08-06T10:43:55.828Z,5.47
2018-08-06T10:46:24.433Z,6.78
2018-08-06T10:48:52.339Z,6.17
2018-08-06T10:51:20.016Z,6.62
2018-08-06T10:53:47.777Z,6.65
2018-08-06T10:56:15.423Z,6.60
2018-08-06T10:58:43.159Z,5.87
2018-08-06T11:01:10.773Z,6.20
2018-08-06T11:03:38.374Z,6.45
2018-08-06T11:06:06.696Z,6.80
2018-08-06T11:08:34.259Z,6.15
2018-08-06T11:11:01.889Z,5.37
2018-08-06T11:13:29.517Z,6.20
2018-08-06T11:15:57.219Z,7.30
2018-08-06T11:18:24.815Z,6.72
2018-08-06T11:20:52.472Z,5.75
2018-08-06T11:23:20.032Z,5.78
2018-08-06T11:25:47.635Z,6.55
2018-08-06T11:28:15.260Z,6.60
2018-08-06T11:30:42.876Z,6.25
2018-08-06T11:33:10.725Z,7.22
2018-08-06T11:35:38.344Z,5.87
2018-08-06T11:38:06.008Z,5.65
2018-08-06T11:40:33.638Z,5.25
2018-08-06T11:43:01.273Z,4.65
2018-08-06T11:45:28.795Z,6.10
2018-08-06T11:47:56.498Z,6.03
2018-08-06T11:50:24.294Z,5.50
2018-08-06T11:52:51.926Z,6.40
2018-08-06T11:55:19.659Z,4.80
2018-08-06T11:57:47.300Z,4.83
2018-08-06T12:00:18.307Z,4.50
2018-08-06T12:02:46.234Z,4.75
2018-08-06T12:05:13.881Z,4.90
2018-08-06T12:07:41.697Z,4.92
2018-08-06T12:10:12.606Z,4.35
2018-08-06T12:12:40.996Z,4.92
2018-08-06T12:15:09.527Z,4.65
2018-08-06T12:17:37.623Z,4.67
2018-08-06T12:20:07.764Z,5.05
2018-08-06T12:22:35.373Z,5.60
2018-08-06T12:25:03.452Z,5.50
2018-08-06T12:27:31.130Z,5.17
2018-08-06T12:29:58.840Z,5.78
2018-08-06T12:32:26.500Z,5.08
2018-08-06T12:34:54.039Z,5.20
2018-08-06T12:37:21.694Z,5.58
2018-08-06T12:39:49.392Z,4.33
2018-08-06T12:42:17.184Z,4.67
2018-08-06T12:44:44.800Z,5.10
2018-08-06T12:47:12.558Z,5.20
2018-08-06T12:49:40.349Z,5.25
2018-08-06T12:52:09.345Z,4.80
2018-08-06T12:54:37.055Z,5.78
2018-08-06T12:57:05.027Z,6.00
2018-08-06T12:59:32.804Z,6.05
2018-08-06T13:02:00.688Z,5.03
2018-08-06T13:04:28.450Z,5.00
2018-08-06T13:06:56.809Z,5.53
2018-08-06T13:09:24.508Z,6.10
2018-08-06T13:11:52.853Z,6.62
2018-08-06T13:14:20.428Z,6.37
2018-08-06T13:16:48.000Z,6.65
2018-08-06T13:19:15.896Z,7.03
2018-08-06T13:21:43.438Z,7.05
2018-08-06T13:24:11.044Z,7.80
2018-08-06T13:26:38.653Z,6.17
2018-08-06T13:29:06.312Z,5.72
2018-08-06T13:31:33.899Z,6.53
2018-08-06T13:34:01.484Z,6.72
2018-08-06T13:36:29.321Z,6.92
2018-08-06T13:38:57.173Z,6.70
2018-08-06T13:41:24.874Z,6.22
2018-08-06T13:43:52.540Z,5.85
2018-08-06T13:46:20.299Z,6.83
2018-08-06T13:48:48.019Z,8.58
2018-08-06T13:51:15.872Z,8.25
2018-08-06T13:53:43.634Z,7.80
2018-08-06T13:56:11.321Z,7.58
2018-08-06T13:58:38.998Z,6.72
2018-08-06T14:01:06.872Z,7.05
2018-08-06T14:03:34.583Z,7.67
2018-08-06T14:06:02.632Z,7.87
2018-08-06T14:08:30.300Z,7.55
2018-08-06T14:10:57.911Z,8.23
2018-08-06T14:13:25.756Z,7.92
2018-08-06T14:15:53.529Z,6.90
2018-08-06T14:18:21.149Z,6.62
2018-08-06T14:20:48.781Z,6.80
2018-08-06T14:23:16.377Z,7.53
2018-08-06T14:25:44.049Z,7.73
2018-08-06T14:28:11.688Z,8.40
2018-08-06T14:30:39.343Z,8.65
2018-08-06T14:33:06.953Z,8.65
2018-08-06T14:35:34.508Z,7.53
2018-08-06T14:38:02.124Z,8.08
2018-08-06T14:40:29.743Z,8.05
2018-08-06T14:42:57.408Z,8.48
2018-08-06T14:45:24.943Z,8.03
2018-08-06T14:47:52.557Z,7.70
2018-08-06T14:50:20.169Z,8.70
2018-08-06T14:52:48.674Z,7.85
2018-08-06T14:55:16.299Z,8.18
2018-08-06T14:57:43.925Z,7.85
2018-08-06T15:00:16.978Z,7.92
2018-08-06T15:02:44.675Z,7.65
2018-08-06T15:05:12.273Z,8.60
2018-08-06T15:07:40.276Z,7.70
2018-08-06T15:10:09.319Z,7.28
2018-08-06T15:12:37.491Z,8.90
2018-08-06T15:15:06.426Z,8.80
2018-08-06T15:17:34.007Z,8.10
2018-08-06T15:20:01.670Z,7.50
2018-08-06T15:22:29.616Z,8.45
2018-08-06T15:24:57.329Z,8.18
2018-08-06T15:27:24.972Z,8.83
2018-08-06T15:29:52.535Z,8.23
2018-08-06T15:32:20.256Z,8.55
2018-08-06T15:34:47.906Z,8.18
2018-08-06T15:37:15.463Z,8.43
2018-08-06T15:39:43.064Z,8.05
2018-08-06T15:42:10.752Z,8.63
2018-08-06T15:44:38.480Z,8.48
2018-08-06T15:47:06.086Z,8.30
2018-08-06T15:49:33.724Z,8.20
2018-08-06T15:52:01.645Z,7.58
2018-08-06T15:54:29.146Z,8.13
2018-08-06T15:56:56.911Z,8.15
2018-08-06T15:59:25.138Z,7.37
2018-08-06T16:01:52.740Z,7.17
2018-08-06T16:04:20.372Z,8.10
2018-08-06T16:06:48.084Z,8.13
2018-08-06T16:09:15.687Z,8.77
2018-08-06T16:11:43.286Z,7.95
2018-08-06T16:14:10.941Z,7.30
2018-08-06T16:16:39.326Z,9.63
2018-08-06T16:19:07.092Z,8.40
2018-08-06T16:21:34.851Z,7.33
2018-08-06T16:24:02.700Z,7.85
2018-08-06T16:26:30.387Z,7.72
2018-08-06T16:28:58.182Z,7.03
2018-08-06T16:31:26.020Z,7.40
2018-08-06T16:33:54.572Z,7.50
2018-08-06T16:36:22.131Z,7.67
2018-08-06T16:38:49.914Z,8.33
2018-08-06T16:41:17.575Z,8.30
2018-08-06T16:43:45.215Z,7.67
2018-08-06T16:46:13.008Z,8.20
2018-08-06T16:48:40.649Z,8.05
2018-08-06T16:51:08.340Z,7.15
2018-08-06T16:53:35.989Z,6.63
2018-08-06T16:56:03.810Z,6.20
2018-08-06T16:58:31.473Z,6.35
2018-08-06T17:00:59.122Z,6.28
2018-08-06T17:03:26.916Z,6.37
2018-08-06T17:05:54.800Z,5.67
2018-08-06T17:08:22.520Z,5.90
2018-08-06T17:10:50.370Z,7.00
2018-08-06T17:13:18.001Z,5.80
2018-08-06T17:15:45.974Z,6.15
2018-08-06T17:18:13.573Z,5.50
2018-08-06T17:20:41.200Z,5.30
2018-08-06T17:23:08.965Z,5.28
2018-08-06T17:25:36.496Z,4.92
2018-08-06T17:28:04.732Z,5.60
2018-08-06T17:30:32.377Z,4.95
2018-08-06T17:33:00.054Z,4.33
2018-08-06T17:35:28.752Z,5.37
2018-08-06T17:37:56.512Z,4.83
2018-08-06T17:40:24.331Z,4.92
2018-08-06T17:42:51.996Z,4.97
2018-08-06T17:45:21.955Z,4.42
2018-08-06T17:47:49.707Z,4.40
2018-08-06T17:50:18.953Z,4.90
2018-08-06T17:52:47.432Z,5.33
2018-08-06T17:55:15.996Z,4.83
2018-08-06T17:57:43.724Z,4.72
2018-08-06T18:00:12.486Z,5.33
2018-08-06T18:02:40.186Z,5.20
2018-08-06T18:05:09.504Z,4.50
2018-08-06T18:07:37.536Z,4.53
2018-08-06T18:10:06.666Z,5.45
2018-08-06T18:12:34.361Z,4.90
2018-08-06T18:15:01.981Z,4.97
2018-08-06T18:17:29.587Z,4.30
2018-08-06T18:19:57.173Z,4.70
2018-08-06T18:22:24.783Z,4.65
2018-08-06T18:24:52.347Z,6.87
2018-08-06T18:27:20.028Z,6.97
2018-08-06T18:29:47.568Z,6.08
2018-08-06T18:32:15.180Z,5.75
2018-08-06T18:34:43.017Z,5.62
2018-08-06T18:37:10.997Z,5.33
2018-08-06T18:39:38.797Z,4.97
2018-08-06T18:42:06.571Z,5.47
2018-08-06T18:44:34.599Z,9.05
2018-08-06T18:47:02.888Z,8.93
2018-08-06T18:49:30.578Z,10.18
2018-08-06T18:51:58.863Z,10.17
2018-08-06T18:54:26.978Z,9.30
2018-08-06T18:56:54.821Z,9.78
2018-08-06T18:59:22.738Z,9.73
2018-08-06T19:01:50.469Z,9.18
2018-08-06T19:04:18.136Z,8.03
2018-08-06T19:06:45.805Z,7.35
2018-08-06T19:09:20.139Z,6.85
2018-08-06T19:11:48.049Z,8.10
2018-08-06T19:14:18.248Z,7.15
2018-08-06T19:16:49.057Z,7.03
2018-08-06T19:19:23.619Z,6.70
2018-08-06T19:21:52.934Z,6.37
2018-08-06T19:24:26.409Z,5.80
2018-08-06T19:26:54.293Z,6.12
2018-08-06T19:29:23.039Z,5.72
2018-08-06T19:31:53.137Z,4.80
2018-08-06T19:34:21.990Z,5.15
2018-08-06T19:36:55.474Z,5.12
2018-08-06T19:39:23.447Z,5.58
2018-08-06T19:41:51.100Z,8.43
2018-08-06T19:44:18.820Z,10.75
2018-08-06T19:46:46.922Z,9.28
2018-08-06T19:49:20.368Z,8.00
2018-08-06T19:51:49.555Z,7.80
2018-08-06T19:54:17.425Z,7.65
2018-08-06T19:56:46.780Z,7.20
2018-08-06T19:59:14.682Z,7.05
2018-08-06T20:01:42.424Z,8.38
2018-08-06T20:04:10.341Z,8.63
2018-08-06T20:06:38.298Z,8.58
2018-08-06T20:09:08.968Z,7.70
2018-08-06T20:11:37.067Z,8.85
2018-08-06T20:14:04.781Z,9.98
2018-08-06T20:16:32.444Z,9.40
2018-08-06T20:19:00.210Z,9.03
2018-08-06T20:21:27.954Z,10.40
2018-08-06T20:23:55.679Z,10.55
2018-08-06T20:26:23.844Z,11.43
2018-08-06T20:28:51.484Z,11.68
2018-08-06T20:31:19.190Z,13.83
2018-08-06T20:33:47.177Z,13.00
2018-08-06T20:36:14.900Z,12.23
2018-08-06T20:38:42.639Z,11.00
2018-08-06T20:41:10.528Z,11.88
2018-08-06T20:43:38.450Z,11.40
2018-08-06T20:46:08.368Z,13.05
2018-08-06T20:48:36.300Z,12.63
2018-08-06T20:51:04.392Z,13.00
2018-08-06T20:53:31.979Z,12.75
2018-08-06T20:55:59.908Z,12.40
2018-08-06T20:58:27.563Z,12.23
2018-08-06T21:00:55.183Z,11.97
2018-08-06T21:03:22.784Z,12.18
2018-08-06T21:05:50.336Z,12.28
2018-08-06T21:08:18.018Z,11.43
2018-08-06T21:10:45.827Z,10.90
2018-08-06T21:13:13.458Z,10.70
2018-08-06T21:15:41.228Z,10.13
2018-08-06T21:18:09.167Z,9.05
2018-08-06T21:20:37.846Z,7.72
2018-08-06T21:23:05.901Z,7.25
2018-08-06T21:25:33.596Z,7.80
2018-08-06T21:28:01.295Z,8.15
2018-08-06T21:30:29.185Z,9.43
2018-08-06T21:32:57.426Z,9.63
2018-08-06T21:35:26.668Z,10.45
2018-08-06T21:37:55.120Z,9.43
2018-08-06T21:40:25.262Z,7.50
2018-08-06T21:42:53.041Z,7.35
2018-08-06T21:45:20.873Z,6.47
2018-08-06T21:47:49.140Z,6.20
2018-08-06T21:50:17.758Z,6.08
2018-08-06T21:52:45.780Z,6.05
2018-08-06T21:55:13.622Z,5.90
2018-08-06T21:57:41.376Z,5.92
2018-08-06T22:00:12.182Z,6.13
2018-08-06T22:02:40.095Z,5.95
2018-08-06T22:05:08.028Z,6.08
2018-08-06T22:07:36.006Z,5.90
2018-08-06T22:10:04.435Z,6.60
2018-08-06T22:12:33.362Z,6.00
2018-08-06T22:15:01.101Z,6.67
2018-08-06T22:17:28.854Z,7.30
2018-08-06T22:19:56.909Z,7.00
2018-08-06T22:22:24.716Z,7.22
2018-08-06T22:24:52.545Z,6.60
2018-08-06T22:27:20.216Z,6.60
2018-08-06T22:29:48.071Z,6.58
2018-08-06T22:32:15.920Z,6.97
2018-08-06T22:34:43.836Z,6.20
2018-08-06T22:37:11.518Z,5.80
2018-08-06T22:39:39.218Z,5.45
2018-08-06T22:42:06.947Z,5.90
2018-08-06T22:44:34.611Z,5.97
2018-08-06T22:47:02.256Z,7.45
2018-08-06T22:49:29.957Z,7.53
2018-08-06T22:51:57.616Z,7.25
2018-08-06T22:54:25.263Z,7.70
2018-08-06T22:56:52.874Z,7.42
2018-08-06T22:59:20.464Z,7.22
2018-08-06T23:01:48.124Z,7.70
2018-08-06T23:04:15.731Z,7.97
2018-08-06T23:06:43.714Z,7.28
2018-08-06T23:09:12.286Z,7.80
2018-08-06T23:11:40.537Z,6.90
2018-08-06T23:14:08.481Z,7.10
2018-08-06T23:16:36.092Z,6.87
2018-08-06T23:19:04.589Z,6.65
2018-08-06T23:21:32.223Z,6.78
2018-08-06T23:23:59.965Z,6.47
2018-08-06T23:26:28.361Z,6.62
2018-08-06T23:28:56.045Z,7.75
2018-08-06T23:31:23.569Z,7.87
2018-08-06T23:33:51.193Z,10.43
2018-08-06T23:36:18.774Z,9.88
2018-08-06T23:38:46.614Z,8.70
2018-08-06T23:41:14.490Z,7.72
2018-08-06T23:43:42.159Z,7.62
2018-08-06T23:46:09.807Z,7.08
2018-08-06T23:48:37.393Z,8.63
2018-08-06T23:51:05.364Z,7.83
2018-08-06T23:53:33.094Z,7.60
2018-08-06T23:56:00.733Z,8.35
2018-08-06T23:58:28.712Z,6.90
